createdAt,value
2019-04-26T00:00:10.199Z,17.35
2019-04-26T00:02:43.925Z,16.37
2019-04-26T00:05:12.797Z,16.95
2019-04-26T00:07:42.188Z,16.65
2019-04-26T00:10:16.054Z,16.73
2019-04-26T00:12:49.182Z,16.87
2019-04-26T00:15:34.449Z,15.70
2019-04-26T00:18:05.130Z,14.78
2019-04-26T00:20:33.668Z,14.58
2019-04-26T00:23:02.276Z,15.03
2019-04-26T00:25:30.885Z,14.98
2019-04-26T00:27:59.431Z,14.47
2019-04-26T00:30:28.039Z,13.58
2019-04-26T00:32:56.686Z,13.00
2019-04-26T00:35:25.218Z,13.70
2019-04-26T00:37:53.848Z,13.50
2019-04-26T00:40:22.539Z,13.25
2019-04-26T00:42:52.095Z,11.78
2019-04-26T00:45:22.939Z,12.35
2019-04-26T00:47:52.508Z,11.80
2019-04-26T00:50:21.426Z,12.05
2019-04-26T00:52:51.813Z,12.55
2019-04-26T00:55:21.981Z,13.05
2019-04-26T00:57:51.513Z,12.05
2019-04-26T01:00:21.593Z,12.13
2019-04-26T01:02:52.117Z,12.03
2019-04-26T01:05:21.218Z,12.45
2019-04-26T01:07:51.405Z,11.40
2019-04-26T01:10:19.973Z,11.57
2019-04-26T01:12:48.615Z,10.85
2019-04-26T01:15:19.862Z,10.53
2019-04-26T01:17:47.637Z,11.12
2019-04-26T01:20:18.875Z,11.15
2019-04-26T01:22:51.081Z,11.93
2019-04-26T01:25:31.522Z,10.85
2019-04-26T01:28:00.935Z,11.33
2019-04-26T01:30:32.447Z,10.00
2019-04-26T01:33:03.258Z,9.78
2019-04-26T01:35:32.172Z,11.55
2019-04-26T01:38:03.757Z,11.50
2019-04-26T01:40:34.008Z,10.88
2019-04-26T01:43:21.569Z,10.65
2019-04-26T01:46:07.797Z,9.80
2019-04-26T01:48:58.737Z,10.08
2019-04-26T01:51:41.927Z,11.48
2019-04-26T01:54:13.455Z,11.00
2019-04-26T01:56:42.768Z,11.30
2019-04-26T01:59:14.288Z,9.98
2019-04-26T02:01:47.795Z,10.53
2019-04-26T02:04:16.531Z,11.48
2019-04-26T02:06:45.138Z,10.85
2019-04-26T02:09:14.120Z,10.53
2019-04-26T02:11:42.836Z,9.55
2019-04-26T02:14:11.550Z,9.58
2019-04-26T02:16:41.170Z,9.78
2019-04-26T02:19:09.788Z,11.03
2019-04-26T02:21:46.650Z,9.80
2019-04-26T02:24:30.127Z,9.55
2019-04-26T02:27:01.576Z,10.10
2019-04-26T02:29:30.434Z,9.45
2019-04-26T02:32:02.176Z,9.00
2019-04-26T02:34:37.175Z,8.90
2019-04-26T02:37:07.431Z,9.60
2019-04-26T02:39:38.941Z,9.38
2019-04-26T02:42:19.388Z,9.70
2019-04-26T02:44:58.144Z,8.75
2019-04-26T02:47:42.922Z,9.43
2019-04-26T02:50:36.569Z,8.20
2019-04-26T02:53:31.646Z,9.85
2019-04-26T02:56:28.234Z,9.18
2019-04-26T02:59:00.277Z,9.68
2019-04-26T03:01:31.793Z,9.08
2019-04-26T03:04:00.413Z,8.93
2019-04-26T03:06:34.245Z,8.93
2019-04-26T03:09:07.151Z,9.60
2019-04-26T03:11:50.622Z,9.20
2019-04-26T03:14:21.487Z,9.93
2019-04-26T03:17:09.501Z,9.80
2019-04-26T03:20:00.799Z,9.50
2019-04-26T03:22:42.560Z,9.98
2019-04-26T03:25:35.210Z,10.70
2019-04-26T03:28:25.506Z,10.10
2019-04-26T03:31:03.452Z,11.08
2019-04-26T03:33:53.968Z,10.50
2019-04-26T03:36:44.270Z,10.55
2019-04-26T03:39:20.186Z,11.43
2019-04-26T03:42:11.551Z,11.70
2019-04-26T03:44:59.396Z,11.65
2019-04-26T03:47:35.614Z,11.90
2019-04-26T03:50:15.610Z,11.05
2019-04-26T03:52:57.011Z,10.85
2019-04-26T03:55:30.168Z,10.95
2019-04-26T03:58:15.558Z,11.70
2019-04-26T04:00:56.593Z,10.60
2019-04-26T04:03:32.494Z,11.43
2019-04-26T04:06:03.745Z,13.22
2019-04-26T04:08:56.260Z,12.82
2019-04-26T04:11:44.319Z,12.15
2019-04-26T04:14:30.606Z,12.37
2019-04-26T04:17:09.361Z,13.22
2019-04-26T04:19:59.225Z,11.73
2019-04-26T04:22:33.526Z,12.43
2019-04-26T04:25:05.324Z,11.57
2019-04-26T04:27:47.284Z,11.35
2019-04-26T04:30:35.227Z,12.53
2019-04-26T04:33:13.122Z,13.30
2019-04-26T04:35:46.084Z,13.93
2019-04-26T04:38:34.177Z,13.20
2019-04-26T04:41:16.297Z,11.75
2019-04-26T04:43:53.263Z,12.00
2019-04-26T04:47:03.803Z,12.65
2019-04-26T04:49:59.400Z,13.32
2019-04-26T04:52:30.914Z,12.23
2019-04-26T04:55:14.717Z,10.50
2019-04-26T04:57:54.522Z,11.70
2019-04-26T05:00:35.674Z,12.30
2019-04-26T05:03:36.131Z,11.40
2019-04-26T05:06:36.451Z,12.33
2019-04-26T05:09:10.720Z,8.75
2019-04-26T05:11:51.930Z,11.00
2019-04-26T05:14:35.300Z,10.88
2019-04-26T05:17:35.231Z,11.03
2019-04-26T05:20:23.276Z,10.85
2019-04-26T05:23:15.928Z,14.28
2019-04-26T05:25:58.168Z,15.75
2019-04-26T05:28:37.082Z,14.93
2019-04-26T05:31:40.435Z,12.58
2019-04-26T05:34:16.782Z,12.40
2019-04-26T05:36:54.782Z,11.60
2019-04-26T05:39:29.376Z,16.10
2019-04-26T05:42:14.174Z,14.15
2019-04-26T05:45:18.867Z,15.15
2019-04-26T05:48:20.472Z,12.60
2019-04-26T05:51:29.086Z,12.15
2019-04-26T05:54:10.846Z,11.12
2019-04-26T05:56:51.130Z,9.73
2019-04-26T05:59:26.301Z,9.60
2019-04-26T06:02:18.382Z,7.30
2019-04-26T06:05:23.220Z,6.55
2019-04-26T06:08:38.776Z,7.55
2019-04-26T06:11:11.965Z,7.37
2019-04-26T06:14:07.191Z,7.17
2019-04-26T06:17:05.867Z,6.12
2019-04-26T06:20:22.821Z,6.72
2019-04-26T06:22:59.666Z,6.95
2019-04-26T06:25:35.825Z,6.95
2019-04-26T06:28:07.341Z,6.90
2019-04-26T06:30:51.667Z,6.35
2019-04-26T06:33:26.150Z,5.95
2019-04-26T06:35:57.446Z,5.58
2019-04-26T06:38:44.043Z,6.05
2019-04-26T06:41:40.032Z,8.10
2019-04-26T06:44:18.988Z,8.05
2019-04-26T06:46:57.790Z,7.15
2019-04-26T06:49:55.144Z,6.28
2019-04-26T06:52:26.777Z,5.45
2019-04-26T06:55:02.233Z,8.70
2019-04-26T06:58:05.659Z,8.50
2019-04-26T07:00:47.503Z,9.03
2019-04-26T07:03:21.862Z,6.42
2019-04-26T07:06:02.558Z,8.18
2019-04-26T07:08:37.140Z,7.37
2019-04-26T07:11:25.252Z,8.03
2019-04-26T07:14:25.294Z,7.33
2019-04-26T07:17:12.216Z,5.97
2019-04-26T07:20:04.836Z,7.50
2019-04-26T07:23:07.963Z,7.65
2019-04-26T07:26:03.870Z,8.98
2019-04-26T07:28:48.833Z,7.55
2019-04-26T07:31:29.003Z,6.08
2019-04-26T07:34:18.632Z,6.92
2019-04-26T07:36:53.532Z,7.20
2019-04-26T07:39:47.716Z,8.80
2019-04-26T07:42:54.121Z,8.25
2019-04-26T07:45:41.811Z,6.70
2019-04-26T07:48:29.471Z,7.05
2019-04-26T07:51:28.534Z,7.28
2019-04-26T07:54:19.348Z,5.97
2019-04-26T07:57:13.434Z,6.50
2019-04-26T08:00:20.255Z,6.55
2019-04-26T08:02:56.201Z,6.03
2019-04-26T08:05:38.303Z,7.03
2019-04-26T08:08:09.019Z,6.83
2019-04-26T08:10:40.845Z,6.95
2019-04-26T08:13:15.517Z,8.28
2019-04-26T08:15:57.580Z,6.47
2019-04-26T08:18:48.340Z,6.53
2019-04-26T08:21:21.483Z,7.25
2019-04-26T08:23:57.800Z,6.85
2019-04-26T08:26:29.549Z,6.95
2019-04-26T08:29:01.648Z,8.25
2019-04-26T08:31:33.135Z,8.95
2019-04-26T08:34:07.505Z,7.90
2019-04-26T08:36:41.568Z,7.53
2019-04-26T08:39:23.386Z,8.80
2019-04-26T08:41:57.206Z,7.92
2019-04-26T08:44:39.090Z,9.70
2019-04-26T08:47:16.779Z,7.35
2019-04-26T08:49:49.373Z,8.10
2019-04-26T08:52:22.428Z,8.15
2019-04-26T08:54:54.516Z,9.40
2019-04-26T08:57:26.320Z,8.53
2019-04-26T08:59:57.907Z,7.90
2019-04-26T09:02:33.655Z,6.90
2019-04-26T09:05:27.623Z,5.85
2019-04-26T09:07:59.220Z,8.60
2019-04-26T09:10:32.864Z,8.40
2019-04-26T09:13:03.827Z,8.80
2019-04-26T09:15:51.647Z,8.40
2019-04-26T09:18:20.344Z,6.37
2019-04-26T09:20:48.918Z,6.47
2019-04-26T09:23:39.591Z,7.45
2019-04-26T09:26:08.613Z,5.92
2019-04-26T09:28:52.977Z,7.40
2019-04-26T09:31:22.129Z,7.60
2019-04-26T09:33:55.113Z,6.25
2019-04-26T09:36:23.895Z,6.08
2019-04-26T09:38:52.439Z,7.00
2019-04-26T09:41:21.121Z,7.55
2019-04-26T09:43:51.308Z,7.87
2019-04-26T09:46:27.530Z,7.03
2019-04-26T09:49:07.071Z,7.25
2019-04-26T09:51:39.057Z,6.20
2019-04-26T09:54:05.439Z,6.40
2019-04-26T09:56:34.102Z,8.50
2019-04-26T09:59:05.706Z,7.90
2019-04-26T10:01:33.995Z,8.60
2019-04-26T10:04:02.615Z,7.90
2019-04-26T10:06:31.241Z,8.53
2019-04-26T10:08:59.857Z,7.37
2019-04-26T10:11:30.124Z,7.87
2019-04-26T10:14:00.384Z,7.33
2019-04-26T10:16:33.598Z,7.80
2019-04-26T10:19:02.616Z,7.87
2019-04-26T10:21:31.151Z,8.00
2019-04-26T10:23:59.771Z,8.70
2019-04-26T10:26:29.839Z,8.58
2019-04-26T10:28:59.931Z,7.03
2019-04-26T10:31:28.542Z,9.58
2019-04-26T10:33:57.087Z,8.25
2019-04-26T10:36:29.692Z,6.55
2019-04-26T10:38:58.334Z,6.62
2019-04-26T10:41:26.848Z,7.60
2019-04-26T10:43:55.493Z,8.18
2019-04-26T10:46:24.466Z,7.92
2019-04-26T10:48:54.553Z,8.68
2019-04-26T10:51:25.105Z,8.08
2019-04-26T10:54:06.064Z,7.90
2019-04-26T10:56:42.391Z,7.80
2019-04-26T10:59:28.052Z,7.85
2019-04-26T11:01:56.832Z,9.18
2019-04-26T11:04:28.171Z,9.35
2019-04-26T11:06:58.137Z,8.15
2019-04-26T11:09:27.175Z,7.65
2019-04-26T11:11:55.806Z,8.45
2019-04-26T11:14:24.515Z,8.58
2019-04-26T11:16:53.925Z,6.83
2019-04-26T11:19:22.569Z,6.62
2019-04-26T11:21:54.875Z,8.40
2019-04-26T11:24:21.484Z,8.20
2019-04-26T11:26:50.132Z,9.03
2019-04-26T11:29:18.784Z,8.90
2019-04-26T11:31:49.083Z,7.08
2019-04-26T11:34:19.179Z,7.72
2019-04-26T11:36:48.122Z,8.23
2019-04-26T11:39:16.908Z,7.45
2019-04-26T11:41:45.514Z,8.83
2019-04-26T11:44:14.318Z,8.73
2019-04-26T11:46:44.976Z,9.00
2019-04-26T11:49:13.135Z,8.90
2019-04-26T11:51:41.743Z,7.10
2019-04-26T11:54:10.383Z,7.58
2019-04-26T11:56:39.039Z,8.10
2019-04-26T11:59:07.677Z,8.20
2019-04-26T12:01:36.668Z,8.90
2019-04-26T12:04:08.488Z,8.40
2019-04-26T12:06:44.549Z,8.10
2019-04-26T12:09:31.132Z,9.40
2019-04-26T12:12:04.780Z,10.28
2019-04-26T12:14:33.456Z,8.63
2019-04-26T12:17:01.321Z,8.83
2019-04-26T12:19:30.250Z,9.38
2019-04-26T12:21:58.887Z,9.35
2019-04-26T12:24:29.603Z,9.08
2019-04-26T12:26:57.861Z,8.75
2019-04-26T12:29:26.468Z,8.90
2019-04-26T12:31:55.104Z,9.50
2019-04-26T12:34:23.725Z,7.55
2019-04-26T12:36:52.346Z,9.35
2019-04-26T12:39:21.519Z,12.98
2019-04-26T12:41:50.141Z,9.48
2019-04-26T12:44:18.813Z,9.25
2019-04-26T12:47:07.129Z,9.80
2019-04-26T12:49:35.748Z,6.78
2019-04-26T12:52:04.369Z,6.35
2019-04-26T12:54:33.016Z,6.83
2019-04-26T12:57:05.744Z,8.28
2019-04-26T12:59:43.516Z,8.63
2019-04-26T13:02:05.909Z,8.53
2019-04-26T13:04:36.260Z,7.80
2019-04-26T13:07:23.444Z,7.00
2019-04-26T13:10:02.227Z,7.42
2019-04-26T13:12:32.457Z,7.53
2019-04-26T13:15:22.055Z,8.33
2019-04-26T13:17:52.615Z,7.92
2019-04-26T13:20:24.465Z,8.90
2019-04-26T13:22:54.277Z,7.75
2019-04-26T13:25:26.459Z,9.68
2019-04-26T13:27:52.049Z,7.58
2019-04-26T13:30:32.421Z,7.30
2019-04-26T13:32:53.482Z,7.95
2019-04-26T13:35:21.365Z,8.73
2019-04-26T13:37:50.001Z,10.18
2019-04-26T13:40:19.286Z,10.38
2019-04-26T13:42:51.438Z,12.90
2019-04-26T13:45:20.119Z,10.58
2019-04-26T13:47:52.862Z,8.48
2019-04-26T13:50:26.694Z,8.75
2019-04-26T13:52:53.465Z,8.20
2019-04-26T13:55:25.424Z,9.25
2019-04-26T13:57:52.515Z,8.75
2019-04-26T14:00:23.134Z,10.55
2019-04-26T14:02:51.712Z,9.65
2019-04-26T14:05:20.403Z,9.13
2019-04-26T14:07:48.957Z,6.92
2019-04-26T14:10:17.745Z,7.10
2019-04-26T14:12:50.034Z,7.97
2019-04-26T14:15:17.462Z,9.55
2019-04-26T14:17:46.032Z,10.85
2019-04-26T14:20:15.090Z,8.90
2019-04-26T14:22:46.866Z,10.65
2019-04-26T14:25:17.089Z,9.40
2019-04-26T14:27:51.509Z,10.03
2019-04-26T14:30:20.475Z,8.43
2019-04-26T14:32:49.063Z,8.08
2019-04-26T14:35:17.638Z,8.03
2019-04-26T14:37:49.774Z,7.30
2019-04-26T14:40:17.681Z,7.87
2019-04-26T14:42:48.587Z,8.13
2019-04-26T14:45:23.828Z,8.18
2019-04-26T14:47:47.875Z,6.83
2019-04-26T14:50:16.641Z,9.90
2019-04-26T14:52:45.195Z,8.23
2019-04-26T14:55:16.582Z,8.13
2019-04-26T14:57:46.734Z,8.48
2019-04-26T15:00:16.799Z,8.90
2019-04-26T15:03:03.268Z,10.38
2019-04-26T15:05:38.297Z,9.35
2019-04-26T15:08:09.537Z,9.55
2019-04-26T15:10:45.926Z,8.98
2019-04-26T15:13:15.328Z,8.53
2019-04-26T15:15:38.035Z,9.60
2019-04-26T15:18:06.653Z,8.30
2019-04-26T15:20:35.268Z,8.90
2019-04-26T15:23:03.917Z,8.68
2019-04-26T15:25:33.593Z,7.17
2019-04-26T15:28:02.568Z,8.10
2019-04-26T15:30:34.643Z,8.23
2019-04-26T15:33:03.164Z,9.55
2019-04-26T15:35:35.603Z,11.50
2019-04-26T15:38:03.704Z,9.15
2019-04-26T15:40:49.225Z,8.30
2019-04-26T15:43:28.236Z,8.55
2019-04-26T15:46:02.327Z,8.95
2019-04-26T15:48:42.993Z,7.85
2019-04-26T15:51:13.468Z,9.20
2019-04-26T15:53:44.837Z,8.85
2019-04-26T15:56:14.622Z,9.05
2019-04-26T15:58:47.920Z,7.78
2019-04-26T16:01:13.921Z,7.35
2019-04-26T16:03:44.585Z,12.00
2019-04-26T16:06:13.106Z,10.70
2019-04-26T16:08:43.763Z,9.38
2019-04-26T16:11:12.492Z,11.95
2019-04-26T16:13:45.103Z,10.78
2019-04-26T16:16:12.600Z,8.75
2019-04-26T16:18:43.099Z,10.95
2019-04-26T16:21:17.675Z,11.00
2019-04-26T16:23:51.148Z,10.30
2019-04-26T16:26:15.318Z,15.23
2019-04-26T16:28:48.642Z,10.05
2019-04-26T16:31:21.704Z,10.00
2019-04-26T16:36:36.649Z,8.15
2019-04-26T16:39:03.291Z,10.35
2019-04-26T16:41:37.743Z,12.95
2019-04-26T16:44:02.780Z,12.15
2019-04-26T16:46:33.314Z,12.07
2019-04-26T16:51:34.107Z,11.73
2019-04-26T16:54:07.433Z,12.33
2019-04-26T16:56:33.649Z,11.70
2019-04-26T16:59:03.233Z,10.35
2019-04-26T17:00:46.861Z,12.30
2019-04-26T17:01:33.394Z,11.20
2019-04-26T17:04:04.161Z,9.98
2019-04-26T17:06:32.494Z,9.40
2019-04-26T17:09:05.016Z,11.00
2019-04-26T17:11:35.050Z,10.20
2019-04-26T17:14:04.909Z,9.78
2019-04-26T17:16:34.709Z,10.13
2019-04-26T17:19:02.497Z,9.95
2019-04-26T17:21:34.594Z,10.85
2019-04-26T17:24:05.885Z,10.50
2019-04-26T17:26:36.748Z,10.38
2019-04-26T17:29:05.646Z,10.23
2019-04-26T17:31:34.338Z,10.15
2019-04-26T17:34:03.550Z,11.35
2019-04-26T17:36:34.527Z,11.30
2019-04-26T17:39:04.531Z,15.32
2019-04-26T17:41:33.431Z,13.08
2019-04-26T17:44:08.026Z,12.45
2019-04-26T17:46:32.619Z,11.80
2019-04-26T17:49:01.591Z,12.88
2019-04-26T17:51:35.224Z,11.68
2019-04-26T17:54:21.045Z,12.70
2019-04-26T17:56:35.359Z,13.20
2019-04-26T17:59:03.278Z,13.32
2019-04-26T18:01:42.931Z,13.83
2019-04-26T18:04:02.284Z,12.10
2019-04-26T18:06:31.062Z,13.85
2019-04-26T18:08:59.696Z,10.60
2019-04-26T18:11:28.308Z,12.07
2019-04-26T18:13:56.969Z,12.35
2019-04-26T18:16:29.374Z,12.05
2019-04-26T18:18:58.017Z,14.58
2019-04-26T18:21:28.269Z,17.45
2019-04-26T18:23:57.289Z,15.78
2019-04-26T18:26:26.173Z,13.88
2019-04-26T18:28:55.344Z,12.55
2019-04-26T18:31:28.614Z,10.50
2019-04-26T18:34:00.596Z,10.82
2019-04-26T18:36:27.753Z,11.95
2019-04-26T18:38:55.465Z,14.93
2019-04-26T18:41:28.713Z,13.18
2019-04-26T18:43:59.764Z,11.25
2019-04-26T18:46:35.694Z,12.93
2019-04-26T18:49:04.356Z,13.38
2019-04-26T18:51:33.445Z,12.58
2019-04-26T18:54:09.244Z,13.78
2019-04-26T18:56:40.455Z,14.75
2019-04-26T18:59:11.759Z,15.18
2019-04-26T19:01:41.806Z,14.65
2019-04-26T19:04:13.094Z,13.58
2019-04-26T19:06:42.185Z,13.55
2019-04-26T19:09:10.111Z,13.85
2019-04-26T19:11:48.631Z,14.10
2019-04-26T19:14:32.292Z,14.13
2019-04-26T19:17:14.461Z,13.60
2019-04-26T19:20:02.088Z,13.38
2019-04-26T19:22:32.225Z,13.58
2019-04-26T19:25:02.045Z,14.47
2019-04-26T19:27:33.276Z,14.83
2019-04-26T19:30:08.690Z,15.08
2019-04-26T19:32:35.413Z,14.18
2019-04-26T19:35:07.602Z,13.83
2019-04-26T19:37:36.759Z,14.23
2019-04-26T19:40:08.865Z,14.85
2019-04-26T19:42:35.547Z,14.83
2019-04-26T19:45:14.208Z,17.42
2019-04-26T19:47:51.960Z,17.10
2019-04-26T19:50:25.531Z,17.52
2019-04-26T19:53:01.863Z,17.67
2019-04-26T19:55:41.811Z,17.55
2019-04-26T19:58:16.694Z,17.50
2019-04-26T20:00:46.618Z,18.62
2019-04-26T20:03:16.738Z,17.30
2019-04-26T20:05:44.315Z,16.87
2019-04-26T20:08:13.308Z,17.67
2019-04-26T20:10:45.364Z,17.30
2019-04-26T20:13:15.075Z,15.88
2019-04-26T20:15:42.729Z,15.72
2019-04-26T20:18:12.269Z,15.40
2019-04-26T20:20:41.397Z,15.40
2019-04-26T20:23:12.253Z,16.45
2019-04-26T20:25:40.776Z,16.75
2019-04-26T20:28:09.386Z,14.60
2019-04-26T20:30:48.401Z,13.93
2019-04-26T20:33:17.289Z,14.30
2019-04-26T20:35:45.863Z,15.45
2019-04-26T20:38:14.411Z,13.62
2019-04-26T20:40:43.422Z,13.38
2019-04-26T20:43:23.807Z,14.07
2019-04-26T20:46:07.983Z,13.98
2019-04-26T20:48:14.190Z,12.98
2019-04-26T20:50:44.479Z,12.55
2019-04-26T20:53:13.093Z,13.45
2019-04-26T20:55:43.411Z,13.95
2019-04-26T20:58:12.031Z,12.55
2019-04-26T21:00:53.693Z,14.33
2019-04-26T21:03:23.170Z,13.32
2019-04-26T21:05:46.216Z,13.65
2019-04-26T21:08:12.551Z,12.07
2019-04-26T21:10:41.796Z,11.88
2019-04-26T21:13:12.214Z,12.45
2019-04-26T21:15:53.391Z,12.70
2019-04-26T21:18:12.339Z,13.50
2019-04-26T21:20:42.515Z,13.53
2019-04-26T21:23:13.246Z,12.37
2019-04-26T21:25:43.502Z,13.32
2019-04-26T21:28:33.026Z,13.00
2019-04-26T21:31:18.214Z,12.13
2019-04-26T21:33:48.466Z,12.98
2019-04-26T21:36:18.687Z,11.60
2019-04-26T21:38:59.357Z,11.88
2019-04-26T21:41:35.708Z,11.20
2019-04-26T21:44:07.575Z,10.58
2019-04-26T21:46:35.779Z,11.57
2019-04-26T21:49:04.405Z,11.68
2019-04-26T21:51:34.022Z,10.48
2019-04-26T21:54:03.752Z,10.15
2019-04-26T21:56:33.746Z,11.90
2019-04-26T21:59:03.684Z,11.73
2019-04-26T22:01:33.122Z,12.75
2019-04-26T22:04:03.438Z,11.33
2019-04-26T22:06:33.450Z,11.05
2019-04-26T22:09:05.169Z,10.85
2019-04-26T22:11:34.162Z,11.05
2019-04-26T22:14:13.178Z,11.28
2019-04-26T22:16:41.825Z,12.85
2019-04-26T22:19:16.057Z,11.45
2019-04-26T22:22:05.797Z,11.68
2019-04-26T22:24:37.442Z,11.78
2019-04-26T22:27:05.993Z,11.53
2019-04-26T22:29:34.595Z,11.95
2019-04-26T22:32:03.744Z,10.00
2019-04-26T22:34:32.874Z,10.63
2019-04-26T22:37:09.879Z,10.68
2019-04-26T22:39:39.646Z,11.57
2019-04-26T22:42:03.045Z,11.55
2019-04-26T22:44:34.618Z,11.97
2019-04-26T22:47:08.346Z,11.22
2019-04-26T22:49:41.812Z,11.85
2019-04-26T22:52:11.109Z,11.63
2019-04-26T22:54:42.255Z,11.78
2019-04-26T22:57:12.601Z,11.75
2019-04-26T22:59:43.305Z,11.93
2019-04-26T23:02:11.005Z,10.95
2019-04-26T23:04:39.911Z,9.35
2019-04-26T23:07:09.445Z,10.03
2019-04-26T23:09:37.989Z,10.03
2019-04-26T23:12:27.955Z,10.43
2019-04-26T23:15:13.638Z,10.60
2019-04-26T23:17:59.239Z,11.28
2019-04-26T23:20:37.849Z,9.98
2019-04-26T23:23:08.590Z,11.00
2019-04-26T23:25:37.533Z,10.55
2019-04-26T23:28:06.149Z,10.63
2019-04-26T23:30:34.862Z,10.05
2019-04-26T23:33:03.843Z,12.65
2019-04-26T23:35:43.078Z,9.33
2019-04-26T23:38:07.171Z,9.80
2019-04-26T23:40:35.718Z,11.03
2019-04-26T23:43:04.589Z,9.75
2019-04-26T23:45:33.427Z,9.95
2019-04-26T23:48:03.528Z,10.58
2019-04-26T23:50:34.098Z,10.70
2019-04-26T23:53:03.143Z,11.33
2019-04-26T23:55:31.693Z,11.18
2019-04-26T23:58:00.274Z,11.20
